Time;durP1;ratioP1;P1;durP2;ratioP2;P2;SDS_P1;SDS_P2;PMS_P1;PMS_P2;Temp;Humidity;BMP_temperature;BMP_pressure;BME280_temperature;BME280_humidity;BME280_pressure;Samples;Min_cycle;Max_cycle;Signal;HPM_P1;HPM_P2
2024/02/11 00:00:31;;;;;;;37.90;35.80;;;;;;;13.58;100.00;100180.22;4984957;28;20085;-65
2024/02/11 00:02:58;;;;;;;40.20;37.83;;;;;;;13.61;100.00;100194.94;4976794;28;20054;-65
2024/02/11 00:05:26;;;;;;;56.40;53.40;;;;;;;13.65;100.00;100180.88;4986420;28;20049;-65
2024/02/11 00:07:53;;;;;;;38.60;36.25;;;;;;;13.54;100.00;100183.59;4982644;28;20054;-66
2024/02/11 00:10:21;;;;;;;37.38;35.17;;;;;;;13.38;100.00;100183.31;4978093;28;20062;-67
2024/02/11 00:12:48;;;;;;;50.22;47.55;;;;;;;13.29;100.00;100179.41;4983698;28;20054;-67
2024/02/11 00:15:16;;;;;;;42.47;39.88;;;;;;;13.18;100.00;100170.34;4974869;28;20061;-65
2024/02/11 00:17:45;;;;;;;46.90;43.03;;;;;;;13.16;100.00;100147.63;4979126;28;20078;-65
2024/02/11 00:20:14;;;;;;;45.53;43.03;;;;;;;13.22;100.00;100142.19;4975709;28;20138;-65
2024/02/11 00:22:41;;;;;;;41.53;38.83;;;;;;;13.12;100.00;100152.63;4976454;28;20502;-67
2024/02/11 00:25:10;;;;;;;42.78;39.80;;;;;;;13.07;100.00;100160.50;4978166;28;20050;-67
2024/02/11 00:27:42;;;;;;;42.33;39.72;;;;;;;13.37;100.00;100167.53;4979866;28;20795;-67
2024/02/11 00:30:10;;;;;;;51.17;48.42;;;;;;;13.23;100.00;100167.78;4980388;28;20086;-67
2024/02/11 00:32:38;;;;;;;42.67;40.15;;;;;;;13.26;100.00;100170.00;4977259;28;20065;-67
2024/02/11 00:35:06;;;;;;;40.95;37.83;;;;;;;13.29;100.00;100166.06;4978919;28;20503;-67
2024/02/11 00:37:33;;;;;;;43.35;40.85;;;;;;;13.27;100.00;100160.97;4979465;28;20146;-66
2024/02/11 00:39:59;;;;;;;48.75;45.50;;;;;;;13.26;100.00;100169.22;4976148;28;20069;-66
2024/02/11 00:42:28;;;;;;;35.92;33.72;;;;;;;13.20;100.00;100160.25;4970394;28;20073;-66
2024/02/11 00:44:55;;;;;;;37.67;35.42;;;;;;;13.12;100.00;100155.28;4980890;28;20401;-67
2024/02/11 00:47:22;;;;;;;39.38;36.25;;;;;;;13.20;100.00;100152.25;4986751;28;20054;-66
2024/02/11 00:49:52;;;;;;;39.00;36.40;;;;;;;13.20;100.00;100151.47;4980293;28;20062;-67
2024/02/11 00:52:19;;;;;;;44.50;41.83;;;;;;;13.31;100.00;100147.94;4983392;28;20058;-66
2024/02/11 00:54:46;;;;;;;39.20;36.42;;;;;;;13.37;100.00;100146.19;4977811;28;20058;-67
2024/02/11 00:57:13;;;;;;;56.40;53.15;;;;;;;13.38;100.00;100142.50;4984579;28;20050;-67
2024/02/11 00:59:41;;;;;;;41.72;39.38;;;;;;;13.31;100.00;100144.47;4976944;28;20518;-66
2024/02/11 01:02:11;;;;;;;47.85;44.85;;;;;;;13.41;100.00;100139.34;4980073;28;20058;-66
2024/02/11 01:04:38;;;;;;;44.67;42.28;;;;;;;13.33;100.00;100137.06;4977348;28;20137;-66
2024/02/11 01:07:06;;;;;;;34.85;32.75;;;;;;;13.30;100.00;100151.69;4978432;28;20063;-65
2024/02/11 01:09:33;;;;;;;30.23;28.23;;;;;;;13.38;100.00;100140.63;4983364;28;20042;-65
2024/02/11 01:12:00;;;;;;;31.17;29.17;;;;;;;13.33;100.00;100139.72;4978793;28;20054;-65
2024/02/11 01:14:29;;;;;;;37.58;34.28;;;;;;;13.22;100.00;100134.19;4984915;28;20072;-65
2024/02/11 01:16:56;;;;;;;39.17;31.15;;;;;;;13.24;100.00;100134.72;4983483;28;20054;-65
2024/02/11 01:19:23;;;;;;;76.82;42.17;;;;;;;13.21;100.00;100119.22;4982105;28;20050;-65
2024/02/11 01:21:50;;;;;;;59.55;55.35;;;;;;;13.22;100.00;100093.34;4973092;28;20452;-65
2024/02/11 01:24:18;;;;;;;48.83;44.17;;;;;;;13.15;100.00;100087.34;4979780;28;20066;-65
2024/02/11 01:26:45;;;;;;;37.35;34.47;;;;;;;13.09;100.00;100077.66;4970001;28;20140;-65
2024/02/11 01:29:12;;;;;;;36.22;33.92;;;;;;;12.96;100.00;100079.53;4980286;28;20500;-64
2024/02/11 01:31:38;;;;;;;46.30;43.60;;;;;;;12.97;100.00;100083.00;4983796;28;20058;-65
2024/02/11 01:34:05;;;;;;;33.28;31.27;;;;;;;12.96;100.00;100082.22;4981025;28;20054;-65
2024/02/11 01:36:32;;;;;;;29.60;27.50;;;;;;;13.00;100.00;100085.19;4977884;28;20075;-65
2024/02/11 01:38:59;;;;;;;37.20;34.80;;;;;;;13.01;100.00;100084.97;4977637;28;20077;-65
2024/02/11 01:41:27;;;;;;;39.47;36.92;;;;;;;13.16;100.00;100080.97;4986714;28;20733;-65
2024/02/11 01:43:56;;;;;;;28.80;26.80;;;;;;;13.14;100.00;100088.41;4980284;28;20101;-65
2024/02/11 01:46:23;;;;;;;41.53;38.53;;;;;;;12.99;100.00;100086.25;4980228;28;20108;-65
2024/02/11 01:48:50;;;;;;;42.45;39.85;;;;;;;12.93;100.00;100090.69;4977016;28;20051;-65
2024/02/11 01:51:18;;;;;;;34.30;31.90;;;;;;;13.03;100.00;100092.72;4981979;28;20061;-65
2024/02/11 01:53:48;;;;;;;37.35;34.15;;;;;;;13.07;100.00;100089.38;4974298;28;20063;-65
2024/02/11 01:56:19;;;;;;;41.22;38.28;;;;;;;13.00;100.00;100080.69;4979609;28;20061;-65
2024/02/11 01:58:49;;;;;;;41.45;36.85;;;;;;;13.00;100.00;100077.22;4984359;28;20443;-65
2024/02/11 02:01:17;;;;;;;37.47;34.00;;;;;;;13.00;100.00;100075.34;4978575;28;20046;-65
2024/02/11 02:03:45;;;;;;;40.78;37.08;;;;;;;12.95;100.00;100077.09;4981586;28;20081;-65
2024/02/11 02:06:12;;;;;;;46.40;43.70;;;;;;;12.84;100.00;100084.91;4975873;28;20062;-65
2024/02/11 02:08:40;;;;;;;30.45;28.45;;;;;;;12.84;100.00;100074.25;4978871;28;20865;-65
2024/02/11 02:11:07;;;;;;;28.98;26.88;;;;;;;12.81;100.00;100061.38;4975336;28;20062;-65
2024/02/11 02:13:34;;;;;;;32.80;30.50;;;;;;;12.77;100.00;100062.13;4981716;28;20065;-65
2024/02/11 02:16:02;;;;;;;30.08;27.88;;;;;;;12.76;100.00;100063.13;4986256;28;20100;-65
2024/02/11 02:18:34;;;;;;;34.72;32.60;;;;;;;12.80;100.00;100064.31;4983288;28;20436;-65
2024/02/11 02:21:01;;;;;;;33.50;31.10;;;;;;;12.92;100.00;100062.41;4978582;28;20053;-65
2024/02/11 02:23:30;;;;;;;32.45;30.45;;;;;;;12.91;100.00;100060.78;4983908;28;20054;-65
2024/02/11 02:25:57;;;;;;;26.35;24.45;;;;;;;13.02;100.00;100048.47;4976888;28;20439;-65
2024/02/11 02:28:24;;;;;;;28.90;27.00;;;;;;;13.04;100.00;100046.34;4984148;28;20065;-67
2024/02/11 02:30:51;;;;;;;38.45;36.30;;;;;;;13.08;100.00;100036.84;4975914;28;20058;-67
2024/02/11 02:33:18;;;;;;;34.05;31.95;;;;;;;13.15;100.00;100042.84;4984394;28;20062;-67
2024/02/11 02:35:44;;;;;;;30.27;28.27;;;;;;;13.26;100.00;100022.53;4975729;28;20086;-66
2024/02/11 02:38:11;;;;;;;29.55;27.45;;;;;;;13.35;100.00;100033.63;4975421;28;20054;-64
2024/02/11 02:40:39;;;;;;;31.05;29.05;;;;;;;13.55;100.00;100025.94;4977802;28;20055;-66
2024/02/11 02:43:10;;;;;;;33.90;31.83;;;;;;;13.36;100.00;100017.38;4969455;28;20519;-66
2024/02/11 02:45:37;;;;;;;30.77;28.75;;;;;;;13.44;100.00;100030.31;4983911;28;20150;-66
2024/02/11 02:48:05;;;;;;;30.45;28.45;;;;;;;13.63;100.00;100022.88;4983522;28;20058;-66
2024/02/11 02:50:34;;;;;;;32.72;30.52;;;;;;;13.53;100.00;100025.41;4984190;28;20059;-67
2024/02/11 02:53:01;;;;;;;34.20;32.20;;;;;;;13.42;100.00;100023.59;4980149;28;20141;-67
2024/02/11 02:55:28;;;;;;;38.53;36.22;;;;;;;13.44;100.00;100022.31;4987441;28;20530;-67
2024/02/11 02:57:56;;;;;;;31.60;29.60;;;;;;;13.41;100.00;100011.31;4969848;28;20539;-67
2024/02/11 03:00:24;;;;;;;31.42;29.52;;;;;;;13.57;100.00;100020.38;4982087;28;20146;-67
2024/02/11 03:02:52;;;;;;;37.08;35.03;;;;;;;13.68;100.00;100014.16;4983050;28;20071;-67
2024/02/11 03:05:22;;;;;;;29.75;28.05;;;;;;;13.58;100.00;100017.44;4978835;28;20149;-67
2024/02/11 03:07:52;;;;;;;29.70;27.80;;;;;;;13.73;100.00;100023.03;4982855;28;20120;-67
2024/02/11 03:10:21;;;;;;;41.65;39.38;;;;;;;13.61;100.00;100019.63;4979518;28;20066;-67
2024/02/11 03:12:48;;;;;;;30.08;28.27;;;;;;;13.74;100.00;100021.19;4986353;28;20515;-67
2024/02/11 03:15:16;;;;;;;29.55;27.75;;;;;;;13.73;100.00;100022.22;4984726;28;20050;-67
2024/02/11 03:17:44;;;;;;;34.17;32.17;;;;;;;13.52;100.00;100018.41;4984297;28;20058;-67
2024/02/11 03:20:14;;;;;;;44.75;42.20;;;;;;;13.56;100.00;100021.44;4978691;28;20058;-67
2024/02/11 03:22:41;;;;;;;33.17;30.98;;;;;;;13.52;100.00;100011.25;4982894;28;20057;-64
2024/02/11 03:25:09;;;;;;;32.15;30.15;;;;;;;13.54;100.00;100013.66;4983920;28;20051;-65
2024/02/11 03:27:38;;;;;;;54.92;51.92;;;;;;;13.90;100.00;100014.22;4985765;28;20165;-65
2024/02/11 03:30:08;;;;;;;35.75;33.65;;;;;;;13.91;100.00;100007.81;4982154;28;20845;-65
2024/02/11 03:32:36;;;;;;;31.05;29.15;;;;;;;13.93;100.00;100014.53;4979203;28;20054;-65
2024/02/11 03:35:04;;;;;;;39.90;37.20;;;;;;;13.96;100.00;100006.03;4979503;28;20503;-66
2024/02/11 03:37:33;;;;;;;50.00;47.22;;;;;;;13.95;100.00;99993.75;4978148;28;20050;-67
2024/02/11 03:40:08;;;;;;;30.38;28.48;;;;;;;13.87;100.00;99993.34;4982929;28;20070;-66
2024/02/11 03:42:35;;;;;;;32.45;30.45;;;;;;;13.88;100.00;99994.97;4971928;28;20065;-66
2024/02/11 03:45:04;;;;;;;35.65;33.55;;;;;;;13.83;100.00;99989.53;4982715;28;20435;-66
2024/02/11 03:47:31;;;;;;;36.00;33.80;;;;;;;13.72;100.00;99992.06;4970065;28;20145;-66
2024/02/11 03:50:01;;;;;;;36.97;34.88;;;;;;;13.79;100.00;99994.56;4982142;28;20095;-67
2024/02/11 03:52:28;;;;;;;36.90;34.70;;;;;;;13.75;100.00;99999.59;4980513;28;20428;-66
2024/02/11 03:54:56;;;;;;;40.22;37.83;;;;;;;13.81;100.00;99997.81;4985381;28;20444;-67
2024/02/11 03:57:23;;;;;;;31.02;29.13;;;;;;;13.64;100.00;99987.13;4975347;28;20061;-66
2024/02/11 03:59:50;;;;;;;37.75;35.55;;;;;;;13.67;100.00;99983.16;4981019;28;20152;-67
2024/02/11 04:02:18;;;;;;;40.95;38.63;;;;;;;13.51;100.00;99988.28;4979874;28;20085;-67
2024/02/11 04:04:45;;;;;;;41.28;38.78;;;;;;;13.67;100.00;99986.66;4978713;28;20059;-67
2024/02/11 04:07:14;;;;;;;31.35;29.55;;;;;;;13.64;100.00;99978.31;4978241;28;20058;-66
2024/02/11 04:09:40;;;;;;;30.85;29.05;;;;;;;13.61;100.00;99987.63;4976436;28;20062;-67
2024/02/11 04:12:08;;;;;;;31.52;29.63;;;;;;;13.49;100.00;99978.88;4978143;28;20508;-67
2024/02/11 04:14:36;;;;;;;53.28;50.47;;;;;;;13.40;100.00;99983.00;4976783;28;20058;-67
2024/02/11 04:17:12;;;;;;;29.13;27.33;;;;;;;13.28;100.00;99981.25;4977786;28;20531;-67
2024/02/11 04:19:39;;;;;;;30.52;28.52;;;;;;;13.27;100.00;99973.47;4977117;28;20055;-67
2024/02/11 04:22:07;;;;;;;30.42;28.50;;;;;;;13.13;100.00;99966.81;4976007;28;20496;-67
2024/02/11 04:24:35;;;;;;;35.90;34.00;;;;;;;13.08;100.00;99959.53;4979990;28;20069;-66
2024/02/11 04:27:02;;;;;;;28.35;26.58;;;;;;;13.12;100.00;99973.19;4986608;28;20058;-67
2024/02/11 04:29:29;;;;;;;32.08;30.17;;;;;;;13.25;100.00;99957.72;4977396;28;20054;-66
2024/02/11 04:31:57;;;;;;;34.30;31.80;;;;;;;13.25;100.00;99967.56;4972928;28;20061;-67
2024/02/11 04:34:24;;;;;;;32.22;30.23;;;;;;;13.22;100.00;99966.19;4982214;28;20475;-66
2024/02/11 04:36:50;;;;;;;38.60;36.50;;;;;;;13.23;100.00;99961.66;4985418;28;20055;-66
2024/02/11 04:39:18;;;;;;;32.80;30.70;;;;;;;13.20;100.00;99965.59;4979076;28;20139;-66
2024/02/11 04:41:47;;;;;;;29.73;27.83;;;;;;;13.31;100.00;99958.59;4985475;28;20140;-67
2024/02/11 04:44:15;;;;;;;30.15;28.15;;;;;;;13.25;100.00;99952.41;4980726;28;20058;-66
2024/02/11 04:46:42;;;;;;;31.90;29.90;;;;;;;13.43;100.00;99967.31;4976735;28;20054;-67
2024/02/11 04:49:09;;;;;;;27.85;25.95;;;;;;;13.61;100.00;99966.28;4977978;28;20065;-66
2024/02/11 04:51:37;;;;;;;28.63;26.40;;;;;;;13.68;100.00;99958.94;4976858;28;20062;-66
2024/02/11 04:54:05;;;;;;;32.88;30.77;;;;;;;13.81;100.00;99963.09;4983057;28;20058;-66
2024/02/11 04:56:35;;;;;;;34.78;32.58;;;;;;;13.72;100.00;99961.91;4974732;28;20093;-67
2024/02/11 04:59:04;;;;;;;29.95;27.95;;;;;;;13.86;100.00;99973.06;4975259;28;20066;-67
2024/02/11 05:01:31;;;;;;;29.42;27.33;;;;;;;13.65;100.00;99967.41;4978146;28;20057;-67
2024/02/11 05:03:59;;;;;;;34.08;31.77;;;;;;;13.68;100.00;99964.25;4977364;28;20042;-67
2024/02/11 05:06:26;;;;;;;29.38;27.27;;;;;;;13.67;100.00;99967.16;4977112;28;20047;-65
2024/02/11 05:08:55;;;;;;;29.08;27.08;;;;;;;13.63;100.00;99964.19;4979396;28;20528;-67
2024/02/11 05:11:22;;;;;;;27.10;25.20;;;;;;;13.59;100.00;99964.94;4979346;28;20546;-65
2024/02/11 05:13:49;;;;;;;33.58;31.27;;;;;;;13.47;100.00;99970.34;4980233;28;20050;-67
2024/02/11 05:16:17;;;;;;;25.70;23.85;;;;;;;13.36;100.00;99977.34;4985818;28;20058;-67
2024/02/11 05:18:44;;;;;;;23.40;21.60;;;;;;;13.29;100.00;99974.06;4978892;28;20070;-66
2024/02/11 05:21:11;;;;;;;29.75;27.65;;;;;;;13.34;100.00;99991.97;4982898;28;20054;-66
2024/02/11 05:23:38;;;;;;;33.10;30.80;;;;;;;13.31;100.00;99979.94;4978873;28;20543;-67
2024/02/11 05:26:12;;;;;;;26.58;24.58;;;;;;;13.54;100.00;99981.66;4980592;28;20055;-67
2024/02/11 05:28:39;;;;;;;27.40;25.40;;;;;;;13.59;100.00;99992.41;4981231;28;20058;-67
2024/02/11 05:31:07;;;;;;;28.75;26.55;;;;;;;13.68;100.00;99987.47;4978000;28;20062;-66
2024/02/11 05:33:35;;;;;;;27.02;24.70;;;;;;;13.94;100.00;99992.09;4975388;28;20054;-67
2024/02/11 05:36:07;;;;;;;23.77;21.67;;;;;;;13.89;100.00;99989.38;4978974;28;20085;-66
2024/02/11 05:38:39;;;;;;;28.58;26.48;;;;;;;13.95;100.00;99987.59;4976895;28;20566;-67
2024/02/11 05:41:07;;;;;;;40.22;37.20;;;;;;;14.00;100.00;99976.97;4984274;28;20050;-66
2024/02/11 05:43:34;;;;;;;27.42;25.33;;;;;;;14.07;100.00;99988.31;4980356;28;20046;-67
2024/02/11 05:46:01;;;;;;;24.80;22.80;;;;;;;14.05;100.00;99978.91;4981657;28;20058;-65
2024/02/11 05:48:28;;;;;;;26.77;24.52;;;;;;;14.06;100.00;99970.66;4984749;28;20046;-66
2024/02/11 05:50:57;;;;;;;26.60;24.40;;;;;;;14.16;100.00;99969.97;4982099;28;20877;-65
2024/02/11 05:53:24;;;;;;;26.27;24.20;;;;;;;14.03;100.00;99965.00;4981222;28;20145;-65
2024/02/11 05:55:53;;;;;;;26.70;24.50;;;;;;;14.30;100.00;99975.75;4982650;28;20425;-65
2024/02/11 05:58:20;;;;;;;31.90;29.50;;;;;;;14.51;100.00;99979.50;4984773;28;20516;-65
2024/02/11 06:00:47;;;;;;;28.40;26.20;;;;;;;14.57;100.00;99975.84;4983032;28;20856;-65
2024/02/11 06:03:14;;;;;;;26.90;24.70;;;;;;;14.60;100.00;99989.50;4980980;28;20050;-65
2024/02/11 06:05:42;;;;;;;26.73;24.55;;;;;;;14.64;100.00;99976.47;4981610;28;20062;-65
2024/02/11 06:08:10;;;;;;;34.05;30.67;;;;;;;14.69;100.00;99984.53;4982368;28;20059;-65
2024/02/11 06:10:37;;;;;;;27.42;24.70;;;;;;;14.71;100.00;99978.97;4980114;28;20446;-65
2024/02/11 06:13:07;;;;;;;38.13;35.25;;;;;;;14.64;100.00;99993.31;4981244;28;20065;-65
2024/02/11 06:15:37;;;;;;;35.58;32.90;;;;;;;14.83;100.00;99999.13;4985808;28;20611;-65
2024/02/11 06:18:04;;;;;;;26.02;23.92;;;;;;;14.95;100.00;99998.16;4982054;28;20447;-65
2024/02/11 06:20:32;;;;;;;26.65;24.52;;;;;;;15.06;100.00;100002.56;4983000;28;20050;-65
2024/02/11 06:22:59;;;;;;;28.45;26.15;;;;;;;15.06;100.00;100005.22;4984627;28;20148;-65
2024/02/11 06:25:27;;;;;;;26.75;24.73;;;;;;;15.07;100.00;100004.19;4984373;28;20050;-65
2024/02/11 06:27:54;;;;;;;29.90;27.50;;;;;;;14.98;100.00;99990.47;4982164;28;20051;-65
2024/02/11 06:30:21;;;;;;;28.05;25.95;;;;;;;15.09;100.00;99989.47;4981083;28;20065;-65
2024/02/11 06:32:50;;;;;;;27.80;25.73;;;;;;;14.95;100.00;99988.31;4979152;28;20054;-65
2024/02/11 06:35:18;;;;;;;27.90;25.80;;;;;;;14.97;100.00;99991.50;4980863;28;20105;-66
2024/02/11 06:37:48;;;;;;;26.95;24.95;;;;;;;15.12;100.00;99994.31;4976632;28;20141;-65
2024/02/11 06:40:17;;;;;;;25.13;23.23;;;;;;;15.03;100.00;100001.19;4985590;28;20514;-65
2024/02/11 06:42:47;;;;;;;26.27;24.27;;;;;;;15.08;100.00;99990.56;4990810;28;20542;-66
2024/02/11 06:45:16;;;;;;;30.77;26.25;;;;;;;15.10;100.00;100001.00;4965049;28;20047;-66
2024/02/11 06:47:43;;;;;;;25.55;23.65;;;;;;;14.96;100.00;99991.78;4974997;28;20047;-66
2024/02/11 06:50:14;;;;;;;24.90;23.00;;;;;;;15.34;100.00;99996.16;4986358;28;20464;-66
2024/02/11 06:52:41;;;;;;;24.92;23.10;;;;;;;15.48;100.00;99993.84;4982833;28;20057;-67
2024/02/11 06:55:10;;;;;;;25.70;23.80;;;;;;;15.45;100.00;99991.69;4979914;28;20055;-65
2024/02/11 06:57:39;;;;;;;24.25;22.35;;;;;;;15.44;100.00;99982.84;4981909;28;20573;-65
2024/02/11 07:00:10;;;;;;;23.80;21.90;;;;;;;15.61;100.00;99982.69;4982028;28;20062;-64
2024/02/11 07:02:37;;;;;;;25.30;23.20;;;;;;;15.55;100.00;99987.22;4975064;28;20050;-65
2024/02/11 07:05:05;;;;;;;24.80;22.80;;;;;;;15.74;100.00;99995.69;4978021;28;20050;-65
2024/02/11 07:07:33;;;;;;;24.40;22.40;;;;;;;15.89;100.00;99994.19;4978123;28;20065;-65
2024/02/11 07:10:00;;;;;;;23.90;21.90;;;;;;;16.03;100.00;99979.25;4979756;28;21042;-74
2024/02/11 07:12:27;;;;;;;26.80;24.60;;;;;;;16.00;100.00;99987.78;4983203;28;20055;-66
2024/02/11 07:14:54;;;;;;;25.70;23.60;;;;;;;16.16;100.00;99988.69;4979831;28;20443;-65
2024/02/11 07:17:23;;;;;;;25.60;23.60;;;;;;;16.19;100.00;99972.09;4984326;28;20062;-66
2024/02/11 07:19:52;;;;;;;25.02;23.02;;;;;;;16.36;100.00;99977.25;4982319;28;20141;-66
2024/02/11 07:22:19;;;;;;;25.30;23.30;;;;;;;16.47;100.00;99987.75;4980683;28;20058;-67
2024/02/11 07:24:47;;;;;;;26.20;24.10;;;;;;;16.65;100.00;99996.41;4984166;28;20058;-66
2024/02/11 07:27:14;;;;;;;27.95;25.85;;;;;;;16.79;100.00;99986.00;4978821;28;20050;-66
2024/02/11 07:29:41;;;;;;;31.42;29.13;;;;;;;16.81;100.00;99991.91;4983337;28;20830;-66
2024/02/11 07:32:08;;;;;;;27.60;25.40;;;;;;;16.89;100.00;99986.03;4984821;28;20048;-66
2024/02/11 07:34:36;;;;;;;25.00;23.00;;;;;;;16.93;100.00;99979.88;4987458;28;20068;-66
2024/02/11 07:37:04;;;;;;;24.80;22.73;;;;;;;16.87;100.00;99982.81;4987217;28;20070;-66
2024/02/11 07:39:31;;;;;;;25.27;23.27;;;;;;;16.54;100.00;99975.97;4988215;28;20065;-67
2024/02/11 07:41:58;;;;;;;24.05;22.05;;;;;;;16.78;100.00;99984.41;4988631;28;20042;-67
2024/02/11 07:44:25;;;;;;;29.02;26.83;;;;;;;16.72;100.00;99978.19;4982713;28;20504;-67
2024/02/11 07:46:53;;;;;;;24.35;22.25;;;;;;;16.73;100.00;99990.50;4982565;28;20050;-67
2024/02/11 07:49:20;;;;;;;23.83;21.92;;;;;;;16.70;100.00;99986.50;4984642;28;20070;-67
2024/02/11 07:51:48;;;;;;;29.60;27.48;;;;;;;16.76;100.00;99992.69;4981667;28;20065;-67
2024/02/11 07:54:17;;;;;;;24.90;22.75;;;;;;;16.74;100.00;99984.09;4982151;28;20066;-67
2024/02/11 07:56:43;;;;;;;27.50;25.40;;;;;;;16.83;100.00;99992.47;4982890;28;20090;-68
2024/02/11 07:59:11;;;;;;;27.60;25.40;;;;;;;16.89;100.00;99997.56;4984916;28;20057;-67
2024/02/11 08:01:38;;;;;;;27.38;25.27;;;;;;;16.86;100.00;99992.72;4979206;28;20137;-67
2024/02/11 08:04:06;;;;;;;26.60;24.15;;;;;;;16.72;100.00;99984.34;4986097;28;20560;-67
2024/02/11 08:06:34;;;;;;;26.17;24.17;;;;;;;16.77;100.00;99986.28;4982065;28;20133;-67
2024/02/11 08:09:03;;;;;;;27.50;25.40;;;;;;;16.75;100.00;99991.06;4983711;28;20679;-67
2024/02/11 08:11:31;;;;;;;23.25;21.45;;;;;;;16.70;100.00;100005.28;4984740;28;20440;-68
2024/02/11 08:14:01;;;;;;;26.95;24.88;;;;;;;16.72;100.00;100011.16;4981902;28;20046;-69
2024/02/11 08:16:28;;;;;;;28.25;26.15;;;;;;;16.74;100.00;100007.44;4982518;28;20050;-65
2024/02/11 08:18:55;;;;;;;25.30;23.30;;;;;;;16.68;100.00;99985.94;4982464;28;20820;-65
2024/02/11 08:21:22;;;;;;;33.40;23.17;;;;;;;16.71;100.00;99985.44;4985453;28;20055;-65
2024/02/11 08:23:49;;;;;;;29.05;26.85;;;;;;;16.85;100.00;99980.41;4986493;28;20069;-65
2024/02/11 08:26:20;;;;;;;32.45;29.88;;;;;;;16.85;100.00;99982.25;4986270;28;20061;-66
2024/02/11 08:28:47;;;;;;;24.92;22.92;;;;;;;16.87;100.00;99985.50;4980053;28;20054;-65
2024/02/11 08:31:14;;;;;;;32.22;29.83;;;;;;;16.90;100.00;99980.41;4985947;28;20069;-66
2024/02/11 08:33:45;;;;;;;29.80;27.70;;;;;;;16.84;100.00;99977.97;4976114;28;20061;-65
2024/02/11 08:36:12;;;;;;;24.30;22.35;;;;;;;16.88;100.00;99992.47;4972727;28;20046;-65
2024/02/11 08:38:38;;;;;;;25.10;23.10;;;;;;;16.89;100.00;99994.88;4978015;28;20043;-65
2024/02/11 08:41:06;;;;;;;31.27;28.88;;;;;;;16.90;100.00;99993.81;4983305;28;20051;-66
2024/02/11 08:43:37;;;;;;;26.60;24.60;;;;;;;16.92;100.00;99996.25;4984279;28;20100;-65
2024/02/11 08:46:04;;;;;;;24.98;22.98;;;;;;;16.91;100.00;99995.44;4984337;28;20092;-66
2024/02/11 08:48:32;;;;;;;24.48;22.55;;;;;;;17.00;100.00;100000.25;4982644;28;20051;-65
2024/02/11 08:51:00;;;;;;;28.90;26.80;;;;;;;17.00;100.00;99993.00;4979139;28;20067;-64
2024/02/11 08:53:28;;;;;;;26.42;24.35;;;;;;;16.98;100.00;100005.09;4983104;28;20062;-65
2024/02/11 08:55:57;;;;;;;29.38;27.17;;;;;;;17.12;100.00;100012.34;4982726;28;21249;-66
2024/02/11 08:58:25;;;;;;;30.15;27.88;;;;;;;17.03;100.00;100011.25;4981661;28;20062;-65
2024/02/11 09:00:53;;;;;;;26.42;24.23;;;;;;;17.21;100.00;100017.19;4983212;28;20081;-65
2024/02/11 09:03:20;;;;;;;26.73;24.63;;;;;;;17.16;100.00;100026.06;4985869;28;20061;-67
2024/02/11 09:05:48;;;;;;;30.38;27.58;;;;;;;17.22;100.00;100027.69;4982931;28;20130;-65
2024/02/11 09:08:16;;;;;;;27.77;25.67;;;;;;;16.94;100.00;100024.41;4985202;28;20405;-67
2024/02/11 09:10:44;;;;;;;27.98;25.88;;;;;;;17.17;100.00;100024.97;4985206;28;20092;-65
2024/02/11 09:13:11;;;;;;;28.80;26.55;;;;;;;17.18;100.00;100011.28;4984750;28;20050;-67
2024/02/11 09:15:38;;;;;;;39.83;37.13;;;;;;;17.20;100.00;100013.72;4985125;28;20062;-67
2024/02/11 09:18:08;;;;;;;27.80;25.50;;;;;;;17.24;100.00;100022.03;4985282;28;20054;-66
2024/02/11 09:20:36;;;;;;;27.92;25.73;;;;;;;17.18;100.00;100022.00;4983782;28;20120;-66
2024/02/11 09:23:05;;;;;;;26.80;24.70;;;;;;;17.08;100.00;100013.16;4983544;28;20058;-65
2024/02/11 09:25:33;;;;;;;26.35;24.25;;;;;;;17.08;100.00;100018.53;4985594;28;20050;-65
2024/02/11 09:28:00;;;;;;;25.75;23.65;;;;;;;17.15;100.00;100021.75;4984975;28;20158;-66
2024/02/11 09:30:27;;;;;;;27.77;25.58;;;;;;;17.18;100.00;100032.75;4984221;28;20058;-65
2024/02/11 09:32:54;;;;;;;26.13;24.02;;;;;;;17.16;100.00;100028.75;4982453;28;20520;-65
2024/02/11 09:35:22;;;;;;;27.33;25.23;;;;;;;17.14;100.00;100030.88;4972236;28;20567;-65
2024/02/11 09:37:49;;;;;;;29.67;27.48;;;;;;;17.27;100.00;100027.66;4977860;28;20058;-65
2024/02/11 09:40:17;;;;;;;31.42;29.05;;;;;;;17.33;100.00;100020.44;4979713;28;20065;-65
2024/02/11 09:42:45;;;;;;;25.88;23.67;;;;;;;17.38;100.00;100010.50;4978992;28;20050;-65
2024/02/11 09:45:16;;;;;;;25.58;23.48;;;;;;;17.42;100.00;100024.19;4975300;28;20132;-65
2024/02/11 09:47:46;;;;;;;27.25;24.98;;;;;;;17.45;100.00;100018.28;4980154;28;20137;-66
2024/02/11 09:50:15;;;;;;;25.15;23.02;;;;;;;17.44;100.00;100022.06;4981840;28;20050;-65
2024/02/11 09:52:46;;;;;;;26.05;23.95;;;;;;;17.45;100.00;100010.22;4978024;28;20074;-65
2024/02/11 09:55:15;;;;;;;27.17;24.88;;;;;;;17.49;100.00;99995.22;4977973;28;20062;-65
2024/02/11 09:57:42;;;;;;;27.77;25.50;;;;;;;17.53;100.00;100000.84;4975946;28;20070;-65
2024/02/11 10:00:10;;;;;;;27.08;24.85;;;;;;;17.42;100.00;99994.66;4979659;28;20050;-65
2024/02/11 10:02:40;;;;;;;32.42;29.92;;;;;;;17.66;100.00;99997.59;4974744;28;20058;-64
2024/02/11 10:05:10;;;;;;;27.55;25.15;;;;;;;17.71;100.00;99988.75;4973986;28;20047;-65
2024/02/11 10:07:43;;;;;;;28.95;26.08;;;;;;;17.77;100.00;99985.81;4975749;28;20138;-65
2024/02/11 10:10:14;;;;;;;25.60;23.30;;;;;;;17.78;100.00;99989.31;4978924;28;20059;-65
2024/02/11 10:12:42;;;;;;;25.95;23.75;;;;;;;17.42;100.00;99983.13;4971959;28;20067;-67
2024/02/11 10:15:13;;;;;;;27.98;25.58;;;;;;;17.73;100.00;99982.03;4978605;28;20058;-67
2024/02/11 10:17:41;;;;;;;25.75;23.55;;;;;;;17.76;100.00;99978.81;4977072;28;20054;-66
2024/02/11 10:20:12;;;;;;;28.83;26.42;;;;;;;17.74;100.00;99972.09;4975943;28;20058;-67
2024/02/11 10:22:41;;;;;;;30.08;27.67;;;;;;;17.69;100.00;99958.66;4985607;28;20066;-67
2024/02/11 10:25:09;;;;;;;27.05;24.65;;;;;;;17.76;100.00;99960.00;4980266;28;20636;-66
2024/02/11 10:27:39;;;;;;;28.38;26.08;;;;;;;17.81;100.00;99951.16;4978470;28;20050;-66
2024/02/11 10:30:10;;;;;;;31.27;28.77;;;;;;;17.76;100.00;99949.28;4979875;28;20492;-66
2024/02/11 10:32:38;;;;;;;28.73;26.42;;;;;;;17.69;100.00;99950.63;4975297;28;20748;-67
2024/02/11 10:35:05;;;;;;;29.38;26.85;;;;;;;17.60;100.00;99955.72;4979732;28;20054;-66
2024/02/11 10:37:41;;;;;;;26.67;24.45;;;;;;;17.65;100.00;99944.19;4979671;28;20058;-66
2024/02/11 10:40:10;;;;;;;27.48;25.27;;;;;;;17.65;100.00;99936.94;4974704;28;20054;-66
2024/02/11 10:42:40;;;;;;;26.48;24.27;;;;;;;17.68;100.00;99933.69;4986697;28;20711;-66
2024/02/11 10:45:09;;;;;;;30.10;27.70;;;;;;;17.69;100.00;99926.44;4967759;28;20061;-66
2024/02/11 10:47:36;;;;;;;27.27;25.08;;;;;;;17.65;100.00;99918.13;4974691;28;20136;-65
2024/02/11 10:50:05;;;;;;;26.05;23.85;;;;;;;17.64;100.00;99919.22;4979807;28;20121;-65
2024/02/11 10:52:37;;;;;;;27.27;25.08;;;;;;;17.49;100.00;99919.22;4976010;28;20063;-65
2024/02/11 10:55:06;;;;;;;25.67;23.48;;;;;;;17.62;100.00;99916.00;4979935;28;20592;-65
2024/02/11 10:57:41;;;;;;;25.55;23.45;;;;;;;17.62;100.00;99918.69;4979626;28;20089;-65
2024/02/11 11:00:11;;;;;;;28.90;26.60;;;;;;;17.57;100.00;99919.47;4976151;28;20432;-65
2024/02/11 11:02:41;;;;;;;27.38;25.17;;;;;;;17.50;100.00;99918.16;4980597;28;20773;-65
2024/02/11 11:05:11;;;;;;;26.88;24.67;;;;;;;17.62;100.00;99918.69;4976537;28;20055;-66
2024/02/11 11:07:40;;;;;;;26.52;24.40;;;;;;;17.62;100.00;99916.00;4982172;28;20054;-67
2024/02/11 11:10:10;;;;;;;27.35;25.10;;;;;;;17.48;100.00;99923.78;4978787;28;20137;-67